sensor_id;sensor_type;location;lat;lon;timestamp;temperature;humidity
18805;DHT22;9530;48.930;9.526;2023-03-31T00:02:23;10.00;99.90
18805;DHT22;9530;48.930;9.526;2023-03-31T00:04:54;10.00;99.90
18805;DHT22;9530;48.930;9.526;2023-03-31T00:07:24;10.00;99.90
18805;DHT22;9530;48.930;9.526;2023-03-31T00:09:52;10.00;99.90
18805;DHT22;9530;48.930;9.526;2023-03-31T00:12:22;9.90;99.90
18805;DHT22;9530;48.930;9.526;2023-03-31T00:14:48;9.90;99.90
18805;DHT22;9530;48.930;9.526;2023-03-31T00:17:15;9.90;99.90
18805;DHT22;9530;48.930;9.526;2023-03-31T00:19:43;9.90;99.90
18805;DHT22;9530;48.930;9.526;2023-03-31T00:22:09;9.90;99.90
18805;DHT22;9530;48.930;9.526;2023-03-31T00:24:36;9.90;99.90
18805;DHT22;9530;48.930;9.526;2023-03-31T00:27:04;10.00;99.90
18805;DHT22;9530;48.930;9.526;2023-03-31T00:29:31;10.00;99.90
18805;DHT22;9530;48.930;9.526;2023-03-31T00:32:00;9.80;99.90
18805;DHT22;9530;48.930;9.526;2023-03-31T00:34:27;9.70;99.90
18805;DHT22;9530;48.930;9.526;2023-03-31T00:36:54;9.70;99.90
18805;DHT22;9530;48.930;9.526;2023-03-31T00:39:27;9.70;99.90
18805;DHT22;9530;48.930;9.526;2023-03-31T00:41:56;9.60;99.90
18805;DHT22;9530;48.930;9.526;2023-03-31T00:44:27;9.60;99.90
18805;DHT22;9530;48.930;9.526;2023-03-31T00:46:56;9.50;99.90
18805;DHT22;9530;48.930;9.526;2023-03-31T00:49:28;9.40;99.90
18805;DHT22;9530;48.930;9.526;2023-03-31T00:51:59;9.30;99.90
18805;DHT22;9530;48.930;9.526;2023-03-31T00:54:28;9.30;99.90
18805;DHT22;9530;48.930;9.526;2023-03-31T00:56:58;9.30;99.90
18805;DHT22;9530;48.930;9.526;2023-03-31T00:59:30;9.20;99.90
18805;DHT22;9530;48.930;9.526;2023-03-31T01:01:58;9.20;99.90
18805;DHT22;9530;48.930;9.526;2023-03-31T01:04:29;9.20;99.90
18805;DHT22;9530;48.930;9.526;2023-03-31T01:07:01;9.20;99.90
18805;DHT22;9530;48.930;9.526;2023-03-31T01:09:30;9.20;99.90
18805;DHT22;9530;48.930;9.526;2023-03-31T01:11:59;9.20;99.90
18805;DHT22;9530;48.930;9.526;2023-03-31T01:14:27;9.20;99.90
18805;DHT22;9530;48.930;9.526;2023-03-31T01:16:55;9.10;99.90
18805;DHT22;9530;48.930;9.526;2023-03-31T01:19:27;9.20;99.90
18805;DHT22;9530;48.930;9.526;2023-03-31T01:22:31;9.10;99.90
18805;DHT22;9530;48.930;9.526;2023-03-31T01:28:13;9.10;99.90
18805;DHT22;9530;48.930;9.526;2023-03-31T01:37:29;9.10;99.90
18805;DHT22;9530;48.930;9.526;2023-03-31T01:40:16;9.20;99.90
18805;DHT22;9530;48.930;9.526;2023-03-31T01:42:51;9.20;99.90
18805;DHT22;9530;48.930;9.526;2023-03-31T01:45:27;9.30;99.90
18805;DHT22;9530;48.930;9.526;2023-03-31T01:48:00;9.40;99.90
18805;DHT22;9530;48.930;9.526;2023-03-31T01:50:32;9.50;99.90
18805;DHT22;9530;48.930;9.526;2023-03-31T01:53:04;9.50;99.90
18805;DHT22;9530;48.930;9.526;2023-03-31T01:55:38;9.60;99.90
18805;DHT22;9530;48.930;9.526;2023-03-31T01:58:11;9.70;99.90
18805;DHT22;9530;48.930;9.526;2023-03-31T02:00:44;9.90;99.90
18805;DHT22;9530;48.930;9.526;2023-03-31T02:03:19;9.90;99.90
18805;DHT22;9530;48.930;9.526;2023-03-31T02:05:49;10.00;99.90
18805;DHT22;9530;48.930;9.526;2023-03-31T02:08:20;10.00;99.90
18805;DHT22;9530;48.930;9.526;2023-03-31T02:10:50;10.10;99.90
18805;DHT22;9530;48.930;9.526;2023-03-31T02:13:18;10.10;99.90
18805;DHT22;9530;48.930;9.526;2023-03-31T02:15:51;10.20;99.90
18805;DHT22;9530;48.930;9.526;2023-03-31T02:18:21;10.30;99.90
18805;DHT22;9530;48.930;9.526;2023-03-31T02:20:51;10.40;99.90
18805;DHT22;9530;48.930;9.526;2023-03-31T02:23:24;10.60;99.90
18805;DHT22;9530;48.930;9.526;2023-03-31T02:26:00;10.80;99.90
18805;DHT22;9530;48.930;9.526;2023-03-31T02:28:27;10.90;99.90
18805;DHT22;9530;48.930;9.526;2023-03-31T02:31:05;11.10;99.90
18805;DHT22;9530;48.930;9.526;2023-03-31T02:33:32;11.20;99.90
18805;DHT22;9530;48.930;9.526;2023-03-31T02:36:00;11.40;99.90
18805;DHT22;9530;48.930;9.526;2023-03-31T02:38:27;11.40;99.90
18805;DHT22;9530;48.930;9.526;2023-03-31T02:40:57;11.40;99.90
18805;DHT22;9530;48.930;9.526;2023-03-31T02:43:24;11.50;99.90
18805;DHT22;9530;48.930;9.526;2023-03-31T02:45:50;11.50;99.90
18805;DHT22;9530;48.930;9.526;2023-03-31T02:48:19;11.50;99.90
18805;DHT22;9530;48.930;9.526;2023-03-31T02:54:15;11.50;99.90
18805;DHT22;9530;48.930;9.526;2023-03-31T02:56:57;11.40;99.90
18805;DHT22;9530;48.930;9.526;2023-03-31T02:59:40;11.50;99.90
18805;DHT22;9530;48.930;9.526;2023-03-31T03:02:17;11.50;99.90
18805;DHT22;9530;48.930;9.526;2023-03-31T03:04:58;11.50;99.90
18805;DHT22;9530;48.930;9.526;2023-03-31T03:07:32;11.40;99.90
18805;DHT22;9530;48.930;9.526;2023-03-31T03:10:02;11.30;99.90
18805;DHT22;9530;48.930;9.526;2023-03-31T03:12:38;11.20;99.90
18805;DHT22;9530;48.930;9.526;2023-03-31T03:15:11;11.10;99.90
18805;DHT22;9530;48.930;9.526;2023-03-31T03:17:40;11.00;99.90
18805;DHT22;9530;48.930;9.526;2023-03-31T03:20:10;10.90;99.90
18805;DHT22;9530;48.930;9.526;2023-03-31T03:22:37;10.70;99.90
18805;DHT22;9530;48.930;9.526;2023-03-31T03:25:06;10.50;99.90
18805;DHT22;9530;48.930;9.526;2023-03-31T03:27:36;10.40;99.90
18805;DHT22;9530;48.930;9.526;2023-03-31T03:30:04;10.30;99.90
18805;DHT22;9530;48.930;9.526;2023-03-31T03:32:31;10.20;99.90
18805;DHT22;9530;48.930;9.526;2023-03-31T03:34:59;10.20;99.90
18805;DHT22;9530;48.930;9.526;2023-03-31T03:37:25;10.10;99.90
18805;DHT22;9530;48.930;9.526;2023-03-31T03:39:52;10.10;99.90
18805;DHT22;9530;48.930;9.526;2023-03-31T03:42:19;10.00;99.90
18805;DHT22;9530;48.930;9.526;2023-03-31T03:44:47;10.00;99.90
18805;DHT22;9530;48.930;9.526;2023-03-31T03:47:14;10.00;99.90
18805;DHT22;9530;48.930;9.526;2023-03-31T03:49:41;10.00;99.90
18805;DHT22;9530;48.930;9.526;2023-03-31T03:52:08;10.00;99.90
18805;DHT22;9530;48.930;9.526;2023-03-31T03:54:35;9.90;99.90
18805;DHT22;9530;48.930;9.526;2023-03-31T03:57:01;9.90;99.90
18805;DHT22;9530;48.930;9.526;2023-03-31T03:59:28;9.90;99.90
18805;DHT22;9530;48.930;9.526;2023-03-31T04:01:56;9.90;99.90
18805;DHT22;9530;48.930;9.526;2023-03-31T04:04:23;9.90;99.90
18805;DHT22;9530;48.930;9.526;2023-03-31T04:06:50;10.00;99.90
18805;DHT22;9530;48.930;9.526;2023-03-31T04:09:17;9.90;99.90
18805;DHT22;9530;48.930;9.526;2023-03-31T04:11:43;9.90;99.90
18805;DHT22;9530;48.930;9.526;2023-03-31T04:14:10;9.90;99.90
18805;DHT22;9530;48.930;9.526;2023-03-31T04:16:37;10.00;99.90
18805;DHT22;9530;48.930;9.526;2023-03-31T04:19:06;10.00;99.90
18805;DHT22;9530;48.930;9.526;2023-03-31T04:21:33;10.10;99.90
18805;DHT22;9530;48.930;9.526;2023-03-31T04:24:10;10.20;99.90
18805;DHT22;9530;48.930;9.526;2023-03-31T04:26:45;10.30;99.90
18805;DHT22;9530;48.930;9.526;2023-03-31T04:29:15;10.30;99.90
18805;DHT22;9530;48.930;9.526;2023-03-31T04:31:44;10.20;99.90
18805;DHT22;9530;48.930;9.526;2023-03-31T04:34:14;10.10;99.90
18805;DHT22;9530;48.930;9.526;2023-03-31T04:36:42;10.10;99.90
18805;DHT22;9530;48.930;9.526;2023-03-31T04:39:11;10.00;99.90
18805;DHT22;9530;48.930;9.526;2023-03-31T04:41:38;9.90;99.90
18805;DHT22;9530;48.930;9.526;2023-03-31T04:44:05;9.80;99.90
18805;DHT22;9530;48.930;9.526;2023-03-31T04:46:32;9.70;99.90
18805;DHT22;9530;48.930;9.526;2023-03-31T04:48:59;9.80;99.90
18805;DHT22;9530;48.930;9.526;2023-03-31T04:51:28;9.80;99.90
18805;DHT22;9530;48.930;9.526;2023-03-31T04:53:55;10.00;99.90
18805;DHT22;9530;48.930;9.526;2023-03-31T04:56:22;9.90;99.90
18805;DHT22;9530;48.930;9.526;2023-03-31T04:58:48;9.90;99.90
18805;DHT22;9530;48.930;9.526;2023-03-31T05:01:15;9.90;99.90
18805;DHT22;9530;48.930;9.526;2023-03-31T05:03:43;9.80;99.90
18805;DHT22;9530;48.930;9.526;2023-03-31T05:06:10;9.80;99.90
18805;DHT22;9530;48.930;9.526;2023-03-31T05:08:38;9.70;99.90
18805;DHT22;9530;48.930;9.526;2023-03-31T05:11:05;9.70;99.90
18805;DHT22;9530;48.930;9.526;2023-03-31T05:13:32;9.70;99.90
18805;DHT22;9530;48.930;9.526;2023-03-31T05:16:05;9.70;99.90
18805;DHT22;9530;48.930;9.526;2023-03-31T05:18:31;9.70;99.90
18805;DHT22;9530;48.930;9.526;2023-03-31T05:21:08;9.70;99.90
18805;DHT22;9530;48.930;9.526;2023-03-31T05:23:35;9.60;99.90
18805;DHT22;9530;48.930;9.526;2023-03-31T05:26:03;9.70;99.90
18805;DHT22;9530;48.930;9.526;2023-03-31T05:28:30;9.80;99.90
18805;DHT22;9530;48.930;9.526;2023-03-31T05:30:58;10.00;99.90
18805;DHT22;9530;48.930;9.526;2023-03-31T05:33:25;10.00;99.90
18805;DHT22;9530;48.930;9.526;2023-03-31T05:35:51;10.00;99.90
18805;DHT22;9530;48.930;9.526;2023-03-31T05:38:18;9.90;99.90
18805;DHT22;9530;48.930;9.526;2023-03-31T05:40:45;9.90;99.90
18805;DHT22;9530;48.930;9.526;2023-03-31T05:43:14;10.00;99.90
18805;DHT22;9530;48.930;9.526;2023-03-31T05:45:41;9.90;99.90
18805;DHT22;9530;48.930;9.526;2023-03-31T05:48:08;9.80;99.90
18805;DHT22;9530;48.930;9.526;2023-03-31T05:50:34;9.70;99.90
18805;DHT22;9530;48.930;9.526;2023-03-31T05:53:01;9.70;99.90
18805;DHT22;9530;48.930;9.526;2023-03-31T05:55:28;9.60;99.90
18805;DHT22;9530;48.930;9.526;2023-03-31T05:57:55;9.60;99.90
18805;DHT22;9530;48.930;9.526;2023-03-31T06:00:23;9.50;99.90
18805;DHT22;9530;48.930;9.526;2023-03-31T06:02:50;9.50;99.90
18805;DHT22;9530;48.930;9.526;2023-03-31T06:05:17;9.50;99.90
18805;DHT22;9530;48.930;9.526;2023-03-31T06:07:43;9.50;99.90
18805;DHT22;9530;48.930;9.526;2023-03-31T06:10:10;9.50;99.90
18805;DHT22;9530;48.930;9.526;2023-03-31T06:12:37;9.40;99.90
18805;DHT22;9530;48.930;9.526;2023-03-31T06:15:04;9.50;99.90
18805;DHT22;9530;48.930;9.526;2023-03-31T06:17:32;9.40;99.90
18805;DHT22;9530;48.930;9.526;2023-03-31T06:19:59;9.50;99.90
18805;DHT22;9530;48.930;9.526;2023-03-31T06:22:25;9.40;99.90
18805;DHT22;9530;48.930;9.526;2023-03-31T06:24:52;9.40;99.90
18805;DHT22;9530;48.930;9.526;2023-03-31T06:27:19;9.40;99.90
18805;DHT22;9530;48.930;9.526;2023-03-31T06:29:45;9.50;99.90
18805;DHT22;9530;48.930;9.526;2023-03-31T06:32:14;9.50;99.90
18805;DHT22;9530;48.930;9.526;2023-03-31T06:34:42;9.50;99.90
18805;DHT22;9530;48.930;9.526;2023-03-31T06:37:09;9.50;99.90
18805;DHT22;9530;48.930;9.526;2023-03-31T06:39:36;9.50;99.90
18805;DHT22;9530;48.930;9.526;2023-03-31T06:42:02;9.60;99.90
18805;DHT22;9530;48.930;9.526;2023-03-31T06:44:29;9.70;99.90
18805;DHT22;9530;48.930;9.526;2023-03-31T06:46:56;9.70;99.90
18805;DHT22;9530;48.930;9.526;2023-03-31T06:49:22;9.70;99.90
18805;DHT22;9530;48.930;9.526;2023-03-31T06:51:50;9.70;99.90
18805;DHT22;9530;48.930;9.526;2023-03-31T06:54:17;9.80;99.90
18805;DHT22;9530;48.930;9.526;2023-03-31T06:56:43;9.80;99.90
18805;DHT22;9530;48.930;9.526;2023-03-31T06:59:10;9.80;99.90
18805;DHT22;9530;48.930;9.526;2023-03-31T07:01:37;9.80;99.90
18805;DHT22;9530;48.930;9.526;2023-03-31T07:04:06;9.80;99.90
18805;DHT22;9530;48.930;9.526;2023-03-31T07:06:33;9.80;99.90
18805;DHT22;9530;48.930;9.526;2023-03-31T07:09:01;9.90;99.90
18805;DHT22;9530;48.930;9.526;2023-03-31T07:11:28;9.90;99.90
18805;DHT22;9530;48.930;9.526;2023-03-31T07:13:55;9.80;99.90
18805;DHT22;9530;48.930;9.526;2023-03-31T07:16:22;9.80;99.90
18805;DHT22;9530;48.930;9.526;2023-03-31T07:18:48;9.80;99.90
18805;DHT22;9530;48.930;9.526;2023-03-31T07:21:18;9.80;99.90
18805;DHT22;9530;48.930;9.526;2023-03-31T07:23:45;9.80;99.90
18805;DHT22;9530;48.930;9.526;2023-03-31T07:26:13;9.80;99.90
18805;DHT22;9530;48.930;9.526;2023-03-31T07:28:40;9.80;99.90
18805;DHT22;9530;48.930;9.526;2023-03-31T07:31:10;9.80;99.90
18805;DHT22;9530;48.930;9.526;2023-03-31T07:33:37;10.00;99.90
18805;DHT22;9530;48.930;9.526;2023-03-31T07:36:04;10.00;99.90
18805;DHT22;9530;48.930;9.526;2023-03-31T07:38:31;10.10;99.90
18805;DHT22;9530;48.930;9.526;2023-03-31T07:40:58;10.20;99.90
18805;DHT22;9530;48.930;9.526;2023-03-31T07:43:26;10.30;99.90
18805;DHT22;9530;48.930;9.526;2023-03-31T07:45:52;10.40;99.90
18805;DHT22;9530;48.930;9.526;2023-03-31T07:48:19;10.50;99.90
18805;DHT22;9530;48.930;9.526;2023-03-31T07:50:47;10.60;99.90
18805;DHT22;9530;48.930;9.526;2023-03-31T07:53:15;10.70;99.90
18805;DHT22;9530;48.930;9.526;2023-03-31T07:55:42;10.80;99.90
18805;DHT22;9530;48.930;9.526;2023-03-31T07:58:09;10.90;99.90
18805;DHT22;9530;48.930;9.526;2023-03-31T08:00:38;11.10;99.90
18805;DHT22;9530;48.930;9.526;2023-03-31T08:03:04;11.30;99.90
18805;DHT22;9530;48.930;9.526;2023-03-31T08:05:31;11.30;99.90
18805;DHT22;9530;48.930;9.526;2023-03-31T08:07:58;11.40;99.90
18805;DHT22;9530;48.930;9.526;2023-03-31T08:10:26;11.50;99.90
18805;DHT22;9530;48.930;9.526;2023-03-31T08:12:53;11.70;99.90
18805;DHT22;9530;48.930;9.526;2023-03-31T08:15:20;11.80;99.90
18805;DHT22;9530;48.930;9.526;2023-03-31T08:17:48;11.90;99.90
18805;DHT22;9530;48.930;9.526;2023-03-31T08:20:15;11.80;99.90
18805;DHT22;9530;48.930;9.526;2023-03-31T08:22:42;11.80;99.90
18805;DHT22;9530;48.930;9.526;2023-03-31T08:25:09;11.80;99.90
18805;DHT22;9530;48.930;9.526;2023-03-31T08:27:37;11.90;99.90
18805;DHT22;9530;48.930;9.526;2023-03-31T08:30:06;12.00;99.90
18805;DHT22;9530;48.930;9.526;2023-03-31T08:32:33;12.20;99.90
18805;DHT22;9530;48.930;9.526;2023-03-31T08:35:02;12.30;99.90
18805;DHT22;9530;48.930;9.526;2023-03-31T08:37:28;12.50;99.90
18805;DHT22;9530;48.930;9.526;2023-03-31T08:39:56;12.70;99.90
18805;DHT22;9530;48.930;9.526;2023-03-31T08:42:34;12.70;99.90
18805;DHT22;9530;48.930;9.526;2023-03-31T08:45:04;13.00;99.90
18805;DHT22;9530;48.930;9.526;2023-03-31T08:47:33;13.20;99.90
18805;DHT22;9530;48.930;9.526;2023-03-31T08:50:06;13.30;99.90
18805;DHT22;9530;48.930;9.526;2023-03-31T08:52:35;13.40;99.90
18805;DHT22;9530;48.930;9.526;2023-03-31T08:55:06;13.40;99.90
18805;DHT22;9530;48.930;9.526;2023-03-31T08:57:39;13.40;99.90
18805;DHT22;9530;48.930;9.526;2023-03-31T09:00:13;13.50;99.90
18805;DHT22;9530;48.930;9.526;2023-03-31T09:02:44;13.50;99.90
18805;DHT22;9530;48.930;9.526;2023-03-31T09:05:28;13.50;99.90
18805;DHT22;9530;48.930;9.526;2023-03-31T09:08:05;13.70;99.90
18805;DHT22;9530;48.930;9.526;2023-03-31T09:10:41;13.80;99.90
18805;DHT22;9530;48.930;9.526;2023-03-31T09:13:21;13.90;99.90
18805;DHT22;9530;48.930;9.526;2023-03-31T09:15:53;14.00;99.90
18805;DHT22;9530;48.930;9.526;2023-03-31T09:18:27;14.00;99.90
18805;DHT22;9530;48.930;9.526;2023-03-31T09:21:03;14.10;99.90
18805;DHT22;9530;48.930;9.526;2023-03-31T09:23:33;14.40;99.90
18805;DHT22;9530;48.930;9.526;2023-03-31T09:26:03;14.60;99.90
18805;DHT22;9530;48.930;9.526;2023-03-31T09:28:33;14.90;99.90
18805;DHT22;9530;48.930;9.526;2023-03-31T09:31:10;15.10;99.90
18805;DHT22;9530;48.930;9.526;2023-03-31T09:33:41;15.40;99.90
18805;DHT22;9530;48.930;9.526;2023-03-31T09:36:14;15.50;99.90
18805;DHT22;9530;48.930;9.526;2023-03-31T09:38:42;15.60;99.90
18805;DHT22;9530;48.930;9.526;2023-03-31T09:41:10;15.40;99.90
18805;DHT22;9530;48.930;9.526;2023-03-31T09:43:39;15.30;99.90
18805;DHT22;9530;48.930;9.526;2023-03-31T09:46:15;15.50;99.90
18805;DHT22;9530;48.930;9.526;2023-03-31T09:48:49;15.30;99.90
18805;DHT22;9530;48.930;9.526;2023-03-31T09:51:23;15.10;99.90
18805;DHT22;9530;48.930;9.526;2023-03-31T09:53:54;14.80;99.90
18805;DHT22;9530;48.930;9.526;2023-03-31T09:56:33;14.80;99.90
18805;DHT22;9530;48.930;9.526;2023-03-31T09:59:02;14.80;99.90
18805;DHT22;9530;48.930;9.526;2023-03-31T10:01:29;14.80;99.90
18805;DHT22;9530;48.930;9.526;2023-03-31T10:03:56;14.80;99.90
18805;DHT22;9530;48.930;9.526;2023-03-31T10:06:24;14.90;99.90
18805;DHT22;9530;48.930;9.526;2023-03-31T10:08:53;14.90;99.90
18805;DHT22;9530;48.930;9.526;2023-03-31T10:11:21;15.00;99.90
18805;DHT22;9530;48.930;9.526;2023-03-31T10:13:49;15.40;99.90
18805;DHT22;9530;48.930;9.526;2023-03-31T10:16:22;15.70;99.90
18805;DHT22;9530;48.930;9.526;2023-03-31T10:18:49;16.20;99.90
18805;DHT22;9530;48.930;9.526;2023-03-31T10:21:20;16.50;99.90
18805;DHT22;9530;48.930;9.526;2023-03-31T10:23:49;16.60;99.90
18805;DHT22;9530;48.930;9.526;2023-03-31T10:26:18;16.70;99.90
18805;DHT22;9530;48.930;9.526;2023-03-31T10:28:47;16.80;99.90
18805;DHT22;9530;48.930;9.526;2023-03-31T10:31:15;16.80;99.90
18805;DHT22;9530;48.930;9.526;2023-03-31T10:33:44;17.00;99.90
18805;DHT22;9530;48.930;9.526;2023-03-31T10:36:17;17.10;99.90
18805;DHT22;9530;48.930;9.526;2023-03-31T10:38:45;16.80;99.90
18805;DHT22;9530;48.930;9.526;2023-03-31T10:41:19;16.40;99.90
18805;DHT22;9530;48.930;9.526;2023-03-31T10:43:49;16.50;99.90
18805;DHT22;9530;48.930;9.526;2023-03-31T10:46:17;16.30;99.90
18805;DHT22;9530;48.930;9.526;2023-03-31T10:48:44;16.20;99.90
18805;DHT22;9530;48.930;9.526;2023-03-31T10:51:14;15.80;99.90
18805;DHT22;9530;48.930;9.526;2023-03-31T10:53:43;15.60;99.90
18805;DHT22;9530;48.930;9.526;2023-03-31T10:56:26;15.50;99.90
18805;DHT22;9530;48.930;9.526;2023-03-31T10:59:13;15.60;99.90
18805;DHT22;9530;48.930;9.526;2023-03-31T11:01:53;16.00;99.90
18805;DHT22;9530;48.930;9.526;2023-03-31T11:04:36;16.40;99.90
18805;DHT22;9530;48.930;9.526;2023-03-31T11:07:12;16.60;99.90
18805;DHT22;9530;48.930;9.526;2023-03-31T11:09:52;16.30;99.90
18805;DHT22;9530;48.930;9.526;2023-03-31T11:12:31;16.20;99.90
18805;DHT22;9530;48.930;9.526;2023-03-31T11:15:08;15.80;99.90
18805;DHT22;9530;48.930;9.526;2023-03-31T11:17:49;15.40;99.90
18805;DHT22;9530;48.930;9.526;2023-03-31T11:20:25;15.10;99.90
18805;DHT22;9530;48.930;9.526;2023-03-31T11:22:57;14.90;99.90
18805;DHT22;9530;48.930;9.526;2023-03-31T11:25:31;15.00;99.90
18805;DHT22;9530;48.930;9.526;2023-03-31T11:31:25;15.20;99.90
18805;DHT22;9530;48.930;9.526;2023-03-31T11:37:05;14.90;99.90
18805;DHT22;9530;48.930;9.526;2023-03-31T11:39:44;14.40;99.90
18805;DHT22;9530;48.930;9.526;2023-03-31T11:42:19;13.70;99.90
18805;DHT22;9530;48.930;9.526;2023-03-31T11:44:51;12.80;99.90
18805;DHT22;9530;48.930;9.526;2023-03-31T11:47:22;11.50;99.90
18805;DHT22;9530;48.930;9.526;2023-03-31T11:49:53;10.20;99.90
18805;DHT22;9530;48.930;9.526;2023-03-31T11:52:26;10.20;99.90
18805;DHT22;9530;48.930;9.526;2023-03-31T11:54:56;9.80;99.90
18805;DHT22;9530;48.930;9.526;2023-03-31T11:57:28;9.80;99.90
18805;DHT22;9530;48.930;9.526;2023-03-31T12:00:02;9.80;99.90
18805;DHT22;9530;48.930;9.526;2023-03-31T12:02:37;10.00;99.90
18805;DHT22;9530;48.930;9.526;2023-03-31T12:05:07;10.20;99.90
18805;DHT22;9530;48.930;9.526;2023-03-31T12:07:40;10.40;99.90
18805;DHT22;9530;48.930;9.526;2023-03-31T12:10:14;10.60;99.90
18805;DHT22;9530;48.930;9.526;2023-03-31T12:12:45;10.80;99.90
18805;DHT22;9530;48.930;9.526;2023-03-31T12:15:20;11.00;99.90
18805;DHT22;9530;48.930;9.526;2023-03-31T12:17:51;11.00;99.90
18805;DHT22;9530;48.930;9.526;2023-03-31T12:20:27;10.90;99.90
18805;DHT22;9530;48.930;9.526;2023-03-31T12:22:57;11.10;99.90
18805;DHT22;9530;48.930;9.526;2023-03-31T12:25:33;11.20;99.90
18805;DHT22;9530;48.930;9.526;2023-03-31T12:28:04;11.30;99.90
18805;DHT22;9530;48.930;9.526;2023-03-31T12:30:34;11.60;99.90
18805;DHT22;9530;48.930;9.526;2023-03-31T12:33:06;11.80;99.90
18805;DHT22;9530;48.930;9.526;2023-03-31T12:35:43;12.10;99.90
18805;DHT22;9530;48.930;9.526;2023-03-31T12:38:28;12.50;99.90
18805;DHT22;9530;48.930;9.526;2023-03-31T12:41:04;13.10;99.90
18805;DHT22;9530;48.930;9.526;2023-03-31T12:43:51;13.50;99.90
18805;DHT22;9530;48.930;9.526;2023-03-31T12:46:40;13.40;99.90
18805;DHT22;9530;48.930;9.526;2023-03-31T12:49:20;13.60;99.90
18805;DHT22;9530;48.930;9.526;2023-03-31T12:52:01;13.80;99.90
18805;DHT22;9530;48.930;9.526;2023-03-31T12:55:01;13.80;99.90
18805;DHT22;9530;48.930;9.526;2023-03-31T12:57:34;13.70;99.90
18805;DHT22;9530;48.930;9.526;2023-03-31T13:00:22;13.90;99.90
18805;DHT22;9530;48.930;9.526;2023-03-31T13:06:49;14.40;99.90
18805;DHT22;9530;48.930;9.526;2023-03-31T13:08:57;14.30;99.90
18805;DHT22;9530;48.930;9.526;2023-03-31T13:11:37;14.10;99.90
18805;DHT22;9530;48.930;9.526;2023-03-31T13:14:10;14.10;99.90
18805;DHT22;9530;48.930;9.526;2023-03-31T13:16:38;14.40;99.90
18805;DHT22;9530;48.930;9.526;2023-03-31T13:19:05;14.90;99.90
18805;DHT22;9530;48.930;9.526;2023-03-31T13:21:51;15.20;99.90
18805;DHT22;9530;48.930;9.526;2023-03-31T13:24:20;15.40;99.90
18805;DHT22;9530;48.930;9.526;2023-03-31T13:26:48;15.40;99.90
18805;DHT22;9530;48.930;9.526;2023-03-31T13:29:21;15.20;99.90
18805;DHT22;9530;48.930;9.526;2023-03-31T13:32:14;15.00;99.90
18805;DHT22;9530;48.930;9.526;2023-03-31T13:34:45;14.60;99.90
18805;DHT22;9530;48.930;9.526;2023-03-31T13:37:22;14.40;99.90
18805;DHT22;9530;48.930;9.526;2023-03-31T13:40:21;14.10;99.90
18805;DHT22;9530;48.930;9.526;2023-03-31T13:43:06;13.90;99.90
18805;DHT22;9530;48.930;9.526;2023-03-31T13:45:49;13.70;99.90
18805;DHT22;9530;48.930;9.526;2023-03-31T13:48:28;13.60;99.90
18805;DHT22;9530;48.930;9.526;2023-03-31T13:51:17;13.50;99.90
18805;DHT22;9530;48.930;9.526;2023-03-31T13:56:58;13.60;99.90
18805;DHT22;9530;48.930;9.526;2023-03-31T13:59:52;13.50;99.90
18805;DHT22;9530;48.930;9.526;2023-03-31T14:02:38;13.60;99.90
18805;DHT22;9530;48.930;9.526;2023-03-31T14:05:27;13.70;99.90
18805;DHT22;9530;48.930;9.526;2023-03-31T14:07:56;13.60;99.90
18805;DHT22;9530;48.930;9.526;2023-03-31T14:10:28;13.40;99.90
18805;DHT22;9530;48.930;9.526;2023-03-31T14:13:06;13.40;99.90
18805;DHT22;9530;48.930;9.526;2023-03-31T14:15:36;13.40;99.90
18805;DHT22;9530;48.930;9.526;2023-03-31T14:18:04;13.20;99.90
18805;DHT22;9530;48.930;9.526;2023-03-31T14:20:35;13.10;99.90
18805;DHT22;9530;48.930;9.526;2023-03-31T14:23:12;12.90;99.90
18805;DHT22;9530;48.930;9.526;2023-03-31T14:25:48;12.80;99.90
18805;DHT22;9530;48.930;9.526;2023-03-31T14:28:24;12.70;99.90
18805;DHT22;9530;48.930;9.526;2023-03-31T14:31:02;12.70;99.90
18805;DHT22;9530;48.930;9.526;2023-03-31T14:33:40;12.70;99.90
18805;DHT22;9530;48.930;9.526;2023-03-31T14:36:12;12.90;99.90
18805;DHT22;9530;48.930;9.526;2023-03-31T14:38:44;13.10;99.90
18805;DHT22;9530;48.930;9.526;2023-03-31T14:41:17;13.50;99.90
18805;DHT22;9530;48.930;9.526;2023-03-31T14:43:47;13.70;99.90
18805;DHT22;9530;48.930;9.526;2023-03-31T14:46:18;14.10;99.90
18805;DHT22;9530;48.930;9.526;2023-03-31T14:48:47;14.10;99.90
18805;DHT22;9530;48.930;9.526;2023-03-31T14:51:17;14.00;99.90
18805;DHT22;9530;48.930;9.526;2023-03-31T14:53:44;13.90;99.90
18805;DHT22;9530;48.930;9.526;2023-03-31T14:56:13;13.80;99.90
18805;DHT22;9530;48.930;9.526;2023-03-31T14:58:45;13.90;99.90
18805;DHT22;9530;48.930;9.526;2023-03-31T15:01:16;14.10;99.90
18805;DHT22;9530;48.930;9.526;2023-03-31T15:03:45;14.30;99.90
18805;DHT22;9530;48.930;9.526;2023-03-31T15:06:13;14.40;99.90
18805;DHT22;9530;48.930;9.526;2023-03-31T15:08:40;14.80;99.90
18805;DHT22;9530;48.930;9.526;2023-03-31T15:11:09;14.90;99.90
18805;DHT22;9530;48.930;9.526;2023-03-31T15:13:42;14.90;99.90
18805;DHT22;9530;48.930;9.526;2023-03-31T15:16:27;14.70;99.90
18805;DHT22;9530;48.930;9.526;2023-03-31T15:18:55;14.60;99.90
18805;DHT22;9530;48.930;9.526;2023-03-31T15:21:24;14.70;99.90
18805;DHT22;9530;48.930;9.526;2023-03-31T15:23:51;14.40;99.90
18805;DHT22;9530;48.930;9.526;2023-03-31T15:26:21;14.40;99.90
18805;DHT22;9530;48.930;9.526;2023-03-31T15:28:52;14.20;99.90
18805;DHT22;9530;48.930;9.526;2023-03-31T15:31:20;14.30;99.90
18805;DHT22;9530;48.930;9.526;2023-03-31T15:33:47;13.80;99.90
18805;DHT22;9530;48.930;9.526;2023-03-31T15:36:14;13.60;99.90
18805;DHT22;9530;48.930;9.526;2023-03-31T15:38:41;13.70;99.90
18805;DHT22;9530;48.930;9.526;2023-03-31T15:41:12;13.60;99.90
18805;DHT22;9530;48.930;9.526;2023-03-31T15:43:45;13.80;99.90
18805;DHT22;9530;48.930;9.526;2023-03-31T15:46:18;13.90;99.90
18805;DHT22;9530;48.930;9.526;2023-03-31T15:48:50;13.80;99.90
18805;DHT22;9530;48.930;9.526;2023-03-31T15:51:23;13.50;99.90
18805;DHT22;9530;48.930;9.526;2023-03-31T15:53:51;13.30;99.90
18805;DHT22;9530;48.930;9.526;2023-03-31T15:56:28;13.30;99.90
18805;DHT22;9530;48.930;9.526;2023-03-31T15:58:57;13.20;99.90
18805;DHT22;9530;48.930;9.526;2023-03-31T16:01:28;13.10;99.90
18805;DHT22;9530;48.930;9.526;2023-03-31T16:03:57;13.20;99.90
18805;DHT22;9530;48.930;9.526;2023-03-31T16:06:34;13.30;99.90
18805;DHT22;9530;48.930;9.526;2023-03-31T16:09:05;13.60;99.90
18805;DHT22;9530;48.930;9.526;2023-03-31T16:11:38;13.80;99.90
18805;DHT22;9530;48.930;9.526;2023-03-31T16:14:12;13.70;99.90
18805;DHT22;9530;48.930;9.526;2023-03-31T16:16:47;13.40;99.90
18805;DHT22;9530;48.930;9.526;2023-03-31T16:19:15;13.20;99.90
18805;DHT22;9530;48.930;9.526;2023-03-31T16:21:43;13.20;99.90
18805;DHT22;9530;48.930;9.526;2023-03-31T16:24:12;13.00;99.90
18805;DHT22;9530;48.930;9.526;2023-03-31T16:26:40;12.90;99.90
18805;DHT22;9530;48.930;9.526;2023-03-31T16:29:07;12.70;99.90
18805;DHT22;9530;48.930;9.526;2023-03-31T16:31:35;12.60;99.90
18805;DHT22;9530;48.930;9.526;2023-03-31T16:34:05;12.50;99.90
18805;DHT22;9530;48.930;9.526;2023-03-31T16:36:32;12.50;99.90
18805;DHT22;9530;48.930;9.526;2023-03-31T16:38:59;12.40;99.90
18805;DHT22;9530;48.930;9.526;2023-03-31T16:41:30;12.40;99.90